Time;durP1;ratioP1;P1;durP2;ratioP2;P2;SDS_P1;SDS_P2;PMS_P1;PMS_P2;Temp;Humidity;BMP_temperature;BMP_pressure;BME280_temperature;BME280_humidity;BME280_pressure;Samples;Min_cycle;Max_cycle;Signal;HPM_P1;HPM_P2
2023/04/01 00:00:58;;;;;;;10.77;3.33;;;;;;;12.52;39.95;92961.31;5005848;28;20503;-76
2023/04/01 00:03:26;;;;;;;9.85;5.97;;;;;;;11.60;42.24;92967.72;5004981;28;20030;-76
2023/04/01 00:05:52;;;;;;;16.20;6.82;;;;;;;11.62;43.43;92980.72;5007021;28;20045;-77
2023/04/01 00:08:18;;;;;;;14.20;8.38;;;;;;;12.12;42.18;92974.03;5003975;28;20324;-77
2023/04/01 00:10:44;;;;;;;14.20;7.63;;;;;;;12.25;41.96;92970.97;5007105;28;20177;-76
2023/04/01 00:13:10;;;;;;;14.30;8.18;;;;;;;12.27;42.29;92991.94;5003576;28;20037;-76
2023/04/01 00:15:35;;;;;;;17.85;7.78;;;;;;;12.15;43.04;92970.69;5006584;28;20041;-76
2023/04/01 00:18:01;;;;;;;23.05;9.73;;;;;;;11.68;43.93;92983.91;5005309;28;20496;-77
2023/04/01 00:20:27;;;;;;;18.58;9.75;;;;;;;11.64;44.20;92978.47;5003797;28;20122;-76
2023/04/01 00:22:53;;;;;;;15.75;10.00;;;;;;;11.64;44.46;92973.16;5015000;28;20441;-76
2023/04/01 00:25:18;;;;;;;17.98;10.07;;;;;;;11.63;44.94;92992.16;5004114;28;20142;-76
2023/04/01 00:27:44;;;;;;;20.90;12.02;;;;;;;10.68;46.97;92973.00;5006691;28;20508;-77
2023/04/01 00:30:10;;;;;;;19.35;10.80;;;;;;;11.25;46.09;92973.94;5003153;28;20450;-76
2023/04/01 00:32:36;;;;;;;18.50;10.02;;;;;;;11.39;45.79;93003.63;5003903;28;20088;-76
2023/04/01 00:35:03;;;;;;;17.70;8.98;;;;;;;11.56;45.63;92998.81;5005289;28;20643;-77
2023/04/01 00:37:29;;;;;;;18.77;8.98;;;;;;;10.56;46.87;92988.22;5003062;28;20028;-76
2023/04/01 00:39:54;;;;;;;19.55;9.88;;;;;;;10.43;47.83;92957.38;5013287;28;20030;-76
2023/04/01 00:42:20;;;;;;;21.70;9.70;;;;;;;10.31;47.90;92958.16;5000971;28;20085;-76
2023/04/01 00:44:50;;;;;;;18.45;10.30;;;;;;;10.32;48.74;92971.09;5005069;28;20557;-76
2023/04/01 00:47:15;;;;;;;24.77;10.45;;;;;;;10.94;48.33;92964.69;5008599;28;20029;-76
2023/04/01 00:49:45;;;;;;;15.35;9.60;;;;;;;10.66;48.58;92969.16;5006072;28;20049;-76
2023/04/01 00:52:15;;;;;;;18.73;10.80;;;;;;;11.29;47.69;92977.47;5004562;28;20133;-76
2023/04/01 00:54:43;;;;;;;16.17;9.48;;;;;;;10.93;47.95;92947.16;5020308;28;20073;-76
2023/04/01 00:57:15;;;;;;;17.85;9.43;;;;;;;11.21;47.84;92947.22;5005177;28;20038;-76
2023/04/01 00:59:43;;;;;;;18.33;10.05;;;;;;;11.26;47.97;92959.50;5004600;28;20576;-76
2023/04/01 01:02:12;;;;;;;16.08;8.32;;;;;;;11.47;47.87;92954.78;5006917;28;20552;-76
2023/04/01 01:04:37;;;;;;;12.48;8.77;;;;;;;11.47;47.28;92930.81;5006548;28;20083;-77
2023/04/01 01:07:21;;;;;;;15.15;8.38;;;;;;;11.66;46.79;92944.31;5005853;28;20026;-76
2023/04/01 01:10:04;;;;;;;8.43;6.25;;;;;;;11.09;46.45;92910.00;5003142;28;20382;-76
2023/04/01 01:12:54;;;;;;;12.82;6.53;;;;;;;11.54;45.66;92925.72;5003625;28;20117;-76
2023/04/01 01:15:25;;;;;;;10.35;6.20;;;;;;;10.80;45.84;92927.03;5004703;28;20034;-76
2023/04/01 01:18:12;;;;;;;16.23;6.13;;;;;;;11.31;45.34;92924.66;5004520;28;20045;-76
2023/04/01 01:20:56;;;;;;;9.57;4.97;;;;;;;11.49;44.93;92931.28;5006294;28;20460;-76
2023/04/01 01:24:00;;;;;;;10.60;5.40;;;;;;;11.25;44.77;92912.72;5006526;28;20049;-76
2023/04/01 01:26:50;;;;;;;17.08;7.82;;;;;;;10.27;47.55;92894.25;5004154;28;20042;-77
2023/04/01 01:29:55;;;;;;;11.77;5.60;;;;;;;11.11;45.60;92908.53;5004744;28;20445;-76
2023/04/01 01:32:30;;;;;;;14.82;7.18;;;;;;;10.98;45.65;92887.63;5018048;28;20041;-76
2023/04/01 01:35:27;;;;;;;12.55;6.40;;;;;;;11.28;44.67;92893.41;5006765;28;20065;-77
2023/04/01 01:38:07;;;;;;;8.23;4.95;;;;;;;11.10;44.96;92869.72;5004147;28;20041;-76
2023/04/01 01:40:35;;;;;;;9.13;5.47;;;;;;;10.38;45.75;92905.22;5005029;28;20124;-77
2023/04/01 01:43:08;;;;;;;12.27;5.03;;;;;;;10.95;45.50;92913.03;5006276;28;20122;-76
2023/04/01 01:45:38;;;;;;;11.38;4.90;;;;;;;11.07;44.75;92897.03;5006704;28;20038;-77
2023/04/01 01:48:06;;;;;;;12.55;4.97;;;;;;;11.04;44.65;92908.34;5005241;28;20133;-76
2023/04/01 01:50:33;;;;;;;7.78;4.63;;;;;;;9.79;46.95;92849.06;4992511;28;20049;-76
2023/04/01 01:53:07;;;;;;;9.07;4.65;;;;;;;10.50;45.51;92848.63;5005204;28;20083;-76
2023/04/01 01:55:40;;;;;;;9.40;5.50;;;;;;;10.37;45.80;92886.97;5004424;28;20048;-76
2023/04/01 01:58:20;;;;;;;10.50;4.53;;;;;;;10.81;45.42;92893.22;5006864;28;20413;-77
2023/04/01 02:01:00;;;;;;;14.38;5.28;;;;;;;10.55;45.59;92880.31;5005834;28;20085;-76
2023/04/01 02:03:29;;;;;;;8.30;5.25;;;;;;;11.04;45.25;92887.06;4997511;28;21110;-77
2023/04/01 02:05:57;;;;;;;7.65;5.00;;;;;;;11.20;44.41;92883.69;5005693;28;20543;-77
2023/04/01 02:08:28;;;;;;;12.60;5.43;;;;;;;10.90;45.40;92873.38;5004381;28;20061;-77
2023/04/01 02:11:00;;;;;;;12.77;6.07;;;;;;;10.08;47.05;92856.03;5004991;28;20112;-76
2023/04/01 02:13:59;;;;;;;11.20;5.22;;;;;;;10.65;45.70;92829.34;5004504;28;20037;-77
2023/04/01 02:16:34;;;;;;;11.77;5.20;;;;;;;11.21;45.12;92869.25;5003377;28;20505;-77
2023/04/01 02:19:01;;;;;;;;;;;;;;;11.21;44.17;92874.56;5018938;28;20479;-76
2023/04/01 02:21:31;;;;;;;15.85;5.38;;;;;;;11.18;44.79;92866.16;5004541;28;19972;-77
2023/04/01 02:23:59;;;;;;;9.05;4.80;;;;;;;10.03;45.97;92843.75;5005592;28;20072;-77
2023/04/01 02:26:26;;;;;;;14.38;5.50;;;;;;;10.77;45.25;92855.88;5015051;28;20087;-77
2023/04/01 02:28:53;;;;;;;14.27;4.97;;;;;;;11.13;44.53;92869.06;5010632;28;20459;-77
2023/04/01 02:31:19;;;;;;;10.25;5.20;;;;;;;10.64;44.27;92830.44;5009420;28;20025;-77
2023/04/01 02:33:46;;;;;;;11.70;4.65;;;;;;;10.72;44.48;92864.09;5007669;28;20121;-78
2023/04/01 02:36:16;;;;;;;9.63;4.28;;;;;;;10.64;44.94;92875.63;5010187;28;20445;-77
2023/04/01 02:38:44;;;;;;;11.15;4.80;;;;;;;11.10;44.26;92883.03;5008401;28;20062;-77
2023/04/01 02:41:10;;;;;;;13.43;5.43;;;;;;;11.06;43.76;92820.97;5007713;28;20111;-77
2023/04/01 02:43:35;;;;;;;13.05;4.70;;;;;;;11.23;44.76;92841.19;5007543;28;20025;-77
2023/04/01 02:46:01;;;;;;;10.68;5.10;;;;;;;11.31;43.50;92852.78;5010513;28;20040;-77
2023/04/01 02:48:27;;;;;;;12.80;5.25;;;;;;;10.24;44.41;92863.03;5006686;28;20388;-77
2023/04/01 02:50:53;;;;;;;11.30;4.97;;;;;;;10.68;44.71;92874.63;5009456;28;20125;-76
2023/04/01 02:53:19;;;;;;;12.02;4.68;;;;;;;10.67;44.64;92843.03;5008743;28;21206;-78
2023/04/01 02:55:44;;;;;;;6.97;5.00;;;;;;;11.13;44.00;92895.69;5008168;28;20037;-77
2023/04/01 02:58:10;;;;;;;7.55;4.20;;;;;;;11.07;44.56;92888.25;5005795;28;20091;-77
2023/04/01 03:00:36;;;;;;;8.50;4.35;;;;;;;11.26;44.33;92903.59;5009848;28;20100;-77
2023/04/01 03:03:02;;;;;;;8.65;4.85;;;;;;;11.02;44.20;92894.59;5006765;28;20047;-76
2023/04/01 03:05:28;;;;;;;11.98;4.75;;;;;;;11.16;44.14;92899.53;5007591;28;20029;-76
2023/04/01 03:07:53;;;;;;;7.90;4.97;;;;;;;10.75;43.95;92890.03;5004502;28;20044;-77
2023/04/01 03:10:18;;;;;;;8.43;4.10;;;;;;;10.92;44.89;92889.75;5010472;28;20483;-76
2023/04/01 03:12:44;;;;;;;9.63;4.35;;;;;;;9.35;46.58;92870.00;5006729;28;20096;-76
2023/04/01 03:15:13;;;;;;;10.30;4.47;;;;;;;10.21;45.40;92900.91;5009197;28;20551;-76
2023/04/01 03:17:39;;;;;;;9.43;4.53;;;;;;;10.17;44.66;92900.00;5007599;28;20089;-77
2023/04/01 03:20:05;;;;;;;8.70;5.45;;;;;;;9.03;48.19;92891.97;5007325;28;20033;-75
2023/04/01 03:22:31;;;;;;;11.48;5.22;;;;;;;9.74;49.50;92905.03;5006257;28;20017;-75
2023/04/01 03:24:56;;;;;;;7.40;4.47;;;;;;;10.19;48.80;92919.03;5009300;28;20037;-75
2023/04/01 03:27:23;;;;;;;8.15;5.53;;;;;;;10.28;49.33;92903.75;5007796;28;20496;-77
2023/04/01 03:29:48;;;;;;;11.15;5.28;;;;;;;9.10;51.46;92892.19;5006132;28;20041;-75
2023/04/01 03:32:13;;;;;;;10.95;3.50;;;;;;;8.53;50.00;92876.13;5007008;28;20034;-75
2023/04/01 03:34:39;;;;;;;7.55;4.15;;;;;;;9.21;51.20;92882.78;5007659;28;20021;-74
2023/04/01 03:37:05;;;;;;;5.57;2.67;;;;;;;9.43;48.89;92887.72;5007524;28;20061;-75
2023/04/01 03:39:31;;;;;;;6.70;2.65;;;;;;;9.53;49.37;92867.19;5010696;28;20499;-76
2023/04/01 03:41:56;;;;;;;6.55;3.63;;;;;;;9.74;49.87;92878.47;5005403;28;20493;-75
2023/04/01 03:44:22;;;;;;;15.10;5.07;;;;;;;9.49;51.00;92853.03;5009234;28;20457;-75
2023/04/01 03:46:47;;;;;;;13.13;5.13;;;;;;;9.06;53.34;92853.41;5006169;28;20026;-74
2023/04/01 03:49:12;;;;;;;10.52;5.13;;;;;;;9.75;53.22;92856.16;5007628;28;20413;-77
2023/04/01 03:51:39;;;;;;;7.95;4.07;;;;;;;10.12;53.25;92849.72;5007039;28;20040;-74
2023/04/01 03:54:05;;;;;;;10.57;4.50;;;;;;;10.12;52.41;92839.09;5007252;28;20040;-75
2023/04/01 03:56:31;;;;;;;6.82;4.22;;;;;;;10.49;52.58;92842.53;5006350;28;20119;-75
2023/04/01 03:58:56;;;;;;;10.68;4.35;;;;;;;10.71;51.64;92819.97;5007326;28;20531;-74
2023/04/01 04:01:22;;;;;;;5.88;3.72;;;;;;;10.08;52.73;92794.94;5008205;28;20069;-74
2023/04/01 04:03:49;;;;;;;8.50;4.05;;;;;;;10.60;52.31;92811.72;5005438;28;20044;-75
2023/04/01 04:06:16;;;;;;;6.50;3.67;;;;;;;10.73;50.95;92780.53;5005896;28;20613;-78
2023/04/01 04:08:42;;;;;;;7.22;3.45;;;;;;;10.87;49.94;92799.53;5009082;28;20885;-76
2023/04/01 04:11:08;;;;;;;7.93;3.10;;;;;;;10.80;50.17;92785.28;5010437;28;20487;-77
2023/04/01 04:13:33;;;;;;;7.53;3.70;;;;;;;10.93;50.97;92765.50;5010032;28;20048;-77
2023/04/01 04:15:59;;;;;;;5.82;4.18;;;;;;;11.03;49.86;92763.13;5006192;28;20042;-77
2023/04/01 04:18:24;;;;;;;8.00;3.22;;;;;;;11.17;49.26;92746.75;5008677;28;20122;-77
2023/04/01 04:20:50;;;;;;;9.82;3.13;;;;;;;11.38;48.40;92751.84;5010967;28;20061;-77
2023/04/01 04:23:17;;;;;;;6.03;3.08;;;;;;;11.49;48.28;92748.31;5013986;28;21203;-77
2023/04/01 04:25:59;;;;;;;8.98;3.22;;;;;;;11.58;48.21;92766.81;5004803;28;20596;-77
2023/04/01 04:28:26;;;;;;;5.03;2.30;;;;;;;11.56;46.80;92763.72;5006138;28;20022;-76
2023/04/01 04:30:51;;;;;;;5.28;3.35;;;;;;;10.10;49.27;92751.00;5007870;28;20848;-77
2023/04/01 04:33:17;;;;;;;9.88;4.13;;;;;;;10.71;48.80;92766.81;5006108;28;20046;-76
2023/04/01 04:35:42;;;;;;;8.95;3.65;;;;;;;11.15;47.78;92762.28;5004220;28;20038;-77
2023/04/01 04:38:07;;;;;;;11.63;4.13;;;;;;;11.21;47.61;92736.97;5003481;28;20214;-77
2023/04/01 04:40:35;;;;;;;7.53;4.22;;;;;;;11.36;47.64;92754.06;4985919;28;20026;-77
2023/04/01 04:43:00;;;;;;;14.00;6.53;;;;;;;11.22;48.19;92732.41;4987926;28;20091;-77
2023/04/01 04:45:26;;;;;;;12.90;7.30;;;;;;;11.23;48.13;92724.09;4982595;28;20572;-77
2023/04/01 04:47:51;;;;;;;13.50;6.93;;;;;;;11.48;47.81;92719.38;4987816;28;20136;-77
2023/04/01 04:50:16;;;;;;;11.88;6.38;;;;;;;11.54;48.13;92742.75;4984992;28;20408;-76
2023/04/01 04:52:42;;;;;;;15.02;6.72;;;;;;;11.29;48.20;92729.94;4987897;28;20541;-77
2023/04/01 04:55:07;;;;;;;12.63;7.15;;;;;;;11.29;48.33;92737.94;4986410;28;20034;-77
2023/04/01 04:57:33;;;;;;;12.20;6.53;;;;;;;11.09;49.29;92711.22;4988696;28;20034;-76
2023/04/01 04:59:58;;;;;;;10.45;6.18;;;;;;;11.25;48.76;92715.78;4988448;28;20417;-76
2023/04/01 05:02:24;;;;;;;14.73;6.60;;;;;;;11.25;49.50;92721.84;4987017;28;20076;-77
2023/04/01 05:04:49;;;;;;;11.55;6.93;;;;;;;11.22;49.65;92727.09;4985314;28;20604;-77
2023/04/01 05:07:15;;;;;;;13.07;7.10;;;;;;;11.24;49.89;92730.19;4985602;28;20038;-77
2023/04/01 05:09:40;;;;;;;14.85;6.65;;;;;;;11.14;49.09;92708.31;4985366;28;20050;-77
2023/04/01 05:12:06;;;;;;;20.10;7.18;;;;;;;11.23;49.40;92718.00;4989489;28;20195;-77
2023/04/01 05:14:31;;;;;;;12.82;7.57;;;;;;;11.29;48.81;92719.28;4985904;28;20036;-76
2023/04/01 05:16:56;;;;;;;9.32;6.53;;;;;;;11.27;48.95;92709.00;4985032;28;20810;-77
2023/04/01 05:19:22;;;;;;;15.57;7.07;;;;;;;11.30;48.77;92691.53;4989512;28;20065;-77
2023/04/01 05:21:47;;;;;;;9.27;5.47;;;;;;;11.20;48.72;92681.44;4988362;28;20069;-77
2023/04/01 05:24:12;;;;;;;12.13;6.32;;;;;;;11.19;48.94;92691.31;4987450;28;20053;-76
2023/04/01 05:26:38;;;;;;;14.75;5.97;;;;;;;10.74;49.83;92675.72;4985196;28;20473;-77
2023/04/01 05:29:04;;;;;;;13.23;6.95;;;;;;;10.95;49.96;92678.94;4986539;28;20022;-78
2023/04/01 05:31:30;;;;;;;17.90;12.00;;;;;;;10.04;51.27;92671.88;4985251;28;20030;-77
2023/04/01 05:33:55;;;;;;;14.52;10.32;;;;;;;10.61;50.42;92663.63;4985048;28;20037;-77
2023/04/01 05:36:21;;;;;;;18.27;7.78;;;;;;;11.21;48.51;92685.63;4987292;28;20596;-77
2023/04/01 05:38:47;;;;;;;15.57;8.85;;;;;;;11.02;49.63;92671.13;4985573;28;20462;-77
2023/04/01 05:41:13;;;;;;;14.50;9.55;;;;;;;11.16;48.54;92700.72;4986119;28;20041;-77
2023/04/01 05:43:39;;;;;;;16.92;9.60;;;;;;;10.77;48.53;92677.69;4984823;28;20109;-77
2023/04/01 05:46:05;;;;;;;14.55;7.65;;;;;;;10.73;47.92;92687.47;4988255;28;20053;-77
2023/04/01 05:48:30;;;;;;;13.82;8.48;;;;;;;10.81;47.86;92661.84;4987173;28;20485;-77
2023/04/01 05:50:56;;;;;;;17.20;7.72;;;;;;;10.86;47.92;92672.22;4988578;28;20402;-77
2023/04/01 05:53:22;;;;;;;16.13;8.02;;;;;;;11.25;48.01;92683.84;4986652;28;20040;-77
2023/04/01 05:55:47;;;;;;;17.10;8.43;;;;;;;11.09;46.45;92679.28;4985060;28;20113;-76
2023/04/01 05:58:13;;;;;;;17.58;9.80;;;;;;;10.60;47.86;92667.38;4982897;28;20647;-77
2023/04/01 06:00:38;;;;;;;11.90;8.20;;;;;;;10.43;48.67;92663.13;4990576;28;20133;-77
2023/04/01 06:03:04;;;;;;;14.40;9.35;;;;;;;11.08;48.58;92675.06;4988351;28;20122;-77
2023/04/01 06:05:37;;;;;;;18.95;8.60;;;;;;;11.62;46.87;92671.81;4991615;28;20348;-77
2023/04/01 06:08:10;;;;;;;13.27;8.77;;;;;;;10.98;47.37;92666.81;4987419;28;20042;-77
2023/04/01 06:11:04;;;;;;;12.38;8.05;;;;;;;11.58;46.09;92684.28;4989340;28;20026;-77
2023/04/01 06:13:32;;;;;;;15.93;8.75;;;;;;;11.08;46.37;92680.41;5011285;28;20119;-77
2023/04/01 06:16:24;;;;;;;15.88;7.72;;;;;;;11.62;47.41;92685.13;5005671;28;20508;-77
2023/04/01 06:19:10;;;;;;;14.85;7.05;;;;;;;11.78;44.69;92685.09;5012603;28;20046;-77
2023/04/01 06:21:48;;;;;;;11.90;5.88;;;;;;;12.15;45.69;92685.50;5010695;28;20030;-77
2023/04/01 06:24:19;;;;;;;14.10;6.47;;;;;;;12.13;45.43;92685.06;5006846;28;20037;-77
2023/04/01 06:27:20;;;;;;;10.90;6.78;;;;;;;12.37;44.86;92690.16;5009923;28;20288;-77
2023/04/01 06:29:54;;;;;;;12.88;6.70;;;;;;;12.47;44.15;92669.00;5016332;28;20451;-77
2023/04/01 06:32:38;;;;;;;9.50;5.38;;;;;;;12.63;44.06;92668.97;5012921;28;20141;-77
2023/04/01 06:35:35;;;;;;;11.48;5.40;;;;;;;12.57;42.84;92646.34;4988301;28;20062;-77
2023/04/01 06:38:09;;;;;;;14.95;6.07;;;;;;;12.57;43.25;92658.91;4989061;28;20490;-77
2023/04/01 06:40:57;;;;;;;10.98;5.63;;;;;;;12.51;42.43;92647.78;4988580;28;20026;-77
2023/04/01 06:43:59;;;;;;;7.82;5.43;;;;;;;12.46;44.66;92638.16;4989623;28;20038;-78
2023/04/01 06:47:00;;;;;;;10.10;4.70;;;;;;;12.42;43.26;92644.53;4990566;28;20049;-77
2023/04/01 06:49:28;;;;;;;14.00;5.65;;;;;;;12.29;43.03;92651.91;5018319;28;20518;-76
2023/04/01 06:52:10;;;;;;;10.00;5.25;;;;;;;12.12;42.86;92635.56;5006291;28;20966;-77
2023/04/01 06:54:44;;;;;;;8.63;5.07;;;;;;;12.16;42.79;92621.19;5010299;28;20033;-77
2023/04/01 06:57:34;;;;;;;11.60;4.90;;;;;;;12.23;42.55;92631.22;5008427;28;20037;-78
2023/04/01 07:00:03;;;;;;;15.70;4.90;;;;;;;11.37;43.62;92593.25;5005937;28;20058;-76
2023/04/01 07:02:49;;;;;;;10.63;4.80;;;;;;;11.71;44.11;92621.78;5008344;28;20022;-77
2023/04/01 07:05:15;;;;;;;13.00;4.68;;;;;;;11.57;42.68;92538.94;5006335;28;20046;-76
2023/04/01 07:07:48;;;;;;;9.82;4.60;;;;;;;12.46;42.67;92634.72;5015433;28;20453;-78
2023/04/01 07:10:33;;;;;;;11.00;5.10;;;;;;;11.66;43.49;92623.94;5008367;28;20159;-77
2023/04/01 07:13:05;;;;;;;15.65;6.40;;;;;;;11.68;44.82;92611.84;5008511;28;20124;-77
2023/04/01 07:15:39;;;;;;;9.98;6.30;;;;;;;11.56;45.06;92619.94;5009063;28;20069;-76
2023/04/01 07:18:14;;;;;;;13.17;5.73;;;;;;;11.78;45.01;92621.94;5008050;28;20595;-77
2023/04/01 07:20:39;;;;;;;19.30;6.35;;;;;;;11.73;44.23;92629.44;5013802;28;20293;-77
2023/04/01 07:23:37;;;;;;;10.20;5.88;;;;;;;11.99;45.08;92630.38;5007127;28;20492;-77
2023/04/01 07:26:23;;;;;;;12.98;6.70;;;;;;;12.19;44.23;92646.38;5009719;28;20038;-77
2023/04/01 07:28:52;;;;;;;12.55;6.22;;;;;;;12.22;43.82;92637.69;5004924;28;20065;-77
2023/04/01 07:31:30;;;;;;;14.88;6.53;;;;;;;12.32;43.72;92619.22;5009273;28;20041;-76
2023/04/01 07:34:08;;;;;;;11.80;6.50;;;;;;;12.53;44.09;92634.84;5004877;28;20037;-76
2023/04/01 07:36:55;;;;;;;12.82;6.65;;;;;;;12.47;44.44;92638.91;5007153;28;20266;-77
2023/04/01 07:39:46;;;;;;;15.90;6.90;;;;;;;12.72;43.29;92642.06;5006697;28;20125;-77
2023/04/01 07:42:31;;;;;;;12.75;6.00;;;;;;;12.73;42.82;92615.03;5013005;28;20409;-77
2023/04/01 07:45:41;;;;;;;15.18;6.43;;;;;;;12.10;44.01;92619.16;5008350;28;20037;-76
2023/04/01 07:48:25;;;;;;;16.20;7.15;;;;;;;12.35;44.34;92628.41;5006607;28;20048;-77
2023/04/01 07:51:02;;;;;;;10.98;6.90;;;;;;;12.42;44.61;92620.53;5006277;28;20050;-77
2023/04/01 07:53:43;;;;;;;9.75;5.65;;;;;;;12.47;43.81;92615.69;5006551;28;20034;-77
2023/04/01 07:56:11;;;;;;;11.02;6.22;;;;;;;12.58;43.80;92605.25;5007735;28;20065;-77
2023/04/01 07:58:52;;;;;;;12.23;6.57;;;;;;;12.80;43.63;92633.09;5007432;28;20554;-77
2023/04/01 08:01:39;;;;;;;15.07;6.80;;;;;;;12.82;43.64;92620.13;5007834;28;20048;-77
2023/04/01 08:04:36;;;;;;;14.85;7.35;;;;;;;12.44;44.86;92611.06;5009094;28;20503;-77
2023/04/01 08:07:26;;;;;;;10.60;6.47;;;;;;;12.60;44.77;92575.56;5007454;28;20408;-76
2023/04/01 08:09:56;;;;;;;10.98;6.65;;;;;;;12.30;45.79;92578.03;5014505;28;20137;-76
2023/04/01 08:12:29;;;;;;;15.07;7.07;;;;;;;12.75;43.88;92599.47;5007647;28;20408;-76
2023/04/01 08:15:10;;;;;;;20.00;7.53;;;;;;;12.92;43.59;92600.09;5008637;28;20099;-77
2023/04/01 08:17:53;;;;;;;15.20;6.95;;;;;;;12.93;44.34;92589.09;5006013;28;20514;-77
2023/04/01 08:20:34;;;;;;;13.15;6.85;;;;;;;13.10;43.07;92579.81;5006239;28;20049;-77
2023/04/01 08:23:32;;;;;;;14.45;6.85;;;;;;;13.29;44.02;92574.41;5003155;28;20056;-77
2023/04/01 08:26:09;;;;;;;11.63;6.38;;;;;;;12.97;45.07;92551.78;5006479;28;20527;-77
2023/04/01 08:28:44;;;;;;;13.07;6.57;;;;;;;12.69;45.23;92552.88;5007569;28;20100;-77
2023/04/01 08:31:18;;;;;;;18.15;6.90;;;;;;;12.85;45.00;92518.84;5007204;28;20053;-77
2023/04/01 08:33:47;;;;;;;35.08;11.38;;;;;;;12.63;46.48;92537.50;5007378;28;20136;-76
2023/04/01 08:36:20;;;;;;;13.32;6.47;;;;;;;12.83;44.92;92514.97;5007089;28;20139;-77
2023/04/01 08:38:57;;;;;;;15.32;8.80;;;;;;;12.28;46.04;92484.31;5005659;28;20038;-77
2023/04/01 08:41:35;;;;;;;14.85;7.03;;;;;;;12.21;46.29;92500.97;5007454;28;20068;-78
2023/04/01 08:44:38;;;;;;;12.27;5.55;;;;;;;12.39;45.52;92512.72;5006084;28;20152;-77
2023/04/01 08:47:28;;;;;;;15.02;6.03;;;;;;;12.64;45.71;92501.72;5005513;28;20059;-77
2023/04/01 08:50:23;;;;;;;12.73;5.47;;;;;;;12.93;44.79;92487.69;5006079;28;20040;-77
2023/04/01 08:53:17;;;;;;;13.35;5.80;;;;;;;13.34;43.89;92499.31;5007097;28;20033;-77
2023/04/01 08:56:10;;;;;;;13.57;5.93;;;;;;;12.89;44.62;92489.53;5013129;28;20030;-77
2023/04/01 08:59:00;;;;;;;9.52;4.80;;;;;;;13.21;43.92;92514.00;5007052;28;21061;-77
2023/04/01 09:01:34;;;;;;;6.30;3.90;;;;;;;13.16;42.50;92504.41;5013278;28;20575;-77
2023/04/01 09:04:19;;;;;;;11.40;5.07;;;;;;;13.16;42.07;92512.41;5006682;28;20640;-77
2023/04/01 09:06:51;;;;;;;15.65;4.97;;;;;;;13.09;42.40;92506.22;5006858;28;20657;-76
2023/04/01 09:09:38;;;;;;;16.35;5.43;;;;;;;13.16;43.19;92506.31;5005344;28;20054;-76
2023/04/01 09:12:36;;;;;;;11.85;4.82;;;;;;;13.22;43.62;92504.88;5004426;28;20573;-77
2023/04/01 09:15:17;;;;;;;9.68;4.47;;;;;;;13.48;42.35;92494.16;5007150;28;20034;-77
2023/04/01 09:18:01;;;;;;;19.60;5.68;;;;;;;13.81;42.39;92481.97;5004855;28;20220;-77
2023/04/01 09:20:48;;;;;;;9.70;4.15;;;;;;;13.97;40.10;92491.34;5004715;28;20042;-77
2023/04/01 09:23:28;;;;;;;9.32;4.82;;;;;;;13.89;39.64;92478.25;5007210;28;20109;-77
2023/04/01 09:26:39;;;;;;;11.57;4.57;;;;;;;14.10;40.21;92470.47;5003722;28;20727;-77
2023/04/01 09:29:16;;;;;;;15.18;5.00;;;;;;;14.25;39.50;92463.34;5005311;28;20042;-77
2023/04/01 09:31:50;;;;;;;9.85;4.07;;;;;;;14.51;36.46;92461.31;5005542;28;20069;-77
2023/04/01 09:34:30;;;;;;;11.65;3.05;;;;;;;14.76;34.79;92448.16;5003508;28;20036;-77
2023/04/01 09:37:24;;;;;;;8.45;3.85;;;;;;;14.60;35.90;92453.00;5006071;28;20531;-77
2023/04/01 09:40:11;;;;;;;8.43;3.20;;;;;;;14.38;36.96;92443.22;5004882;28;20056;-77
2023/04/01 09:43:03;;;;;;;15.02;3.92;;;;;;;14.81;35.71;92441.69;5013941;28;20091;-77
2023/04/01 09:46:04;;;;;;;11.07;3.42;;;;;;;15.09;34.65;92430.38;5004055;28;20037;-77
2023/04/01 09:49:01;;;;;;;9.68;2.42;;;;;;;15.26;34.94;92403.69;5003074;28;20034;-77
2023/04/01 09:52:05;;;;;;;13.40;2.58;;;;;;;15.46;33.26;92404.19;5007700;28;20061;-77
2023/04/01 09:54:49;;;;;;;8.55;2.22;;;;;;;15.42;32.75;92395.34;5008419;28;20033;-77
2023/04/01 09:57:36;;;;;;;9.88;2.05;;;;;;;15.52;32.91;92405.38;5004728;28;20616;-77
2023/04/01 10:00:23;;;;;;;12.18;2.97;;;;;;;15.57;34.33;92396.19;5005697;28;20546;-76
2023/04/01 10:02:55;;;;;;;10.75;3.50;;;;;;;15.31;35.78;92395.31;5004647;28;20041;-77
2023/04/01 10:05:53;;;;;;;18.35;4.03;;;;;;;14.56;36.75;92394.13;5006971;28;20041;-76
2023/04/01 10:08:41;;;;;;;11.15;3.42;;;;;;;14.71;36.53;92407.59;5011650;28;20057;-76
2023/04/01 10:11:44;;;;;;;9.13;3.10;;;;;;;15.13;35.77;92386.44;5003708;28;20042;-76
2023/04/01 10:14:15;;;;;;;7.80;2.55;;;;;;;15.23;34.86;92393.75;5003050;28;20034;-76
2023/04/01 10:16:50;;;;;;;10.18;2.67;;;;;;;15.36;34.22;92384.22;5007088;28;20300;-76
2023/04/01 10:19:40;;;;;;;46.65;5.10;;;;;;;14.76;33.27;92381.25;5004575;28;20577;-76
2023/04/01 10:22:31;;;;;;;7.82;2.15;;;;;;;15.48;35.83;92369.00;5004307;28;20519;-77
2023/04/01 10:25:08;;;;;;;5.53;2.75;;;;;;;15.51;32.38;92362.88;5006473;28;20087;-77
2023/04/01 10:27:55;;;;;;;9.02;2.90;;;;;;;15.05;35.35;92392.91;5010858;28;20034;-77
2023/04/01 10:30:46;;;;;;;5.30;1.70;;;;;;;15.28;32.61;92352.44;5002465;28;20034;-76
2023/04/01 10:33:48;;;;;;;5.05;1.48;;;;;;;15.35;32.61;92334.47;5004957;28;20049;-77
2023/04/01 10:36:48;;;;;;;10.68;3.22;;;;;;;15.43;32.20;92311.16;5007710;28;20065;-76
2023/04/01 10:39:31;;;;;;;7.60;2.55;;;;;;;16.08;31.54;92345.78;5005290;28;20419;-77
2023/04/01 10:42:15;;;;;;;10.15;2.15;;;;;;;16.26;31.02;92338.50;5004108;28;20224;-76
2023/04/01 10:44:46;;;;;;;6.45;1.67;;;;;;;16.06;31.44;92325.84;5005047;28;20045;-77
2023/04/01 10:47:21;;;;;;;13.73;2.83;;;;;;;16.25;33.25;92318.19;5008577;28;20248;-76
2023/04/01 10:50:23;;;;;;;12.38;2.92;;;;;;;16.00;32.13;92322.75;5009347;28;20026;-76
2023/04/01 10:52:54;;;;;;;9.27;1.80;;;;;;;15.79;33.22;92318.16;5009813;28;20038;-77
2023/04/01 10:55:35;;;;;;;8.00;1.95;;;;;;;15.56;33.37;92327.69;5008449;28;20915;-76
2023/04/01 10:58:47;;;;;;;7.80;2.60;;;;;;;15.96;31.94;92303.22;5007721;28;20042;-77
2023/04/01 11:01:15;;;;;;;10.75;2.53;;;;;;;15.76;31.48;92310.88;5013120;28;20096;-77
2023/04/01 11:03:59;;;;;;;4.25;1.85;;;;;;;15.45;34.01;92296.25;5008929;28;20420;-77
2023/04/01 11:06:37;;;;;;;10.90;1.75;;;;;;;15.09;32.54;92309.91;5006010;28;20038;-76
2023/04/01 11:09:11;;;;;;;5.03;2.15;;;;;;;15.54;34.02;92306.63;5007989;28;20050;-76
2023/04/01 11:11:55;;;;;;;8.57;2.53;;;;;;;15.66;33.83;92311.63;5007470;28;20603;-78
2023/04/01 11:14:35;;;;;;;4.20;1.92;;;;;;;14.74;33.71;92313.97;5006095;28;20034;-76
2023/04/01 11:17:01;;;;;;;6.43;1.90;;;;;;;15.33;33.37;92319.94;5009226;28;20061;-77
2023/04/01 11:19:54;;;;;;;8.27;1.90;;;;;;;15.20;32.59;92298.09;5006987;28;20116;-76
2023/04/01 11:22:45;;;;;;;19.40;8.88;;;;;;;14.82;34.03;92336.16;5006023;28;20051;-76
2023/04/01 11:25:43;;;;;;;8.10;1.98;;;;;;;14.42;35.06;92348.50;5002610;28;20385;-77
2023/04/01 11:28:35;;;;;;;6.47;2.40;;;;;;;14.45;36.66;92347.00;5001159;28;20045;-77
2023/04/01 11:31:14;;;;;;;9.90;4.78;;;;;;;14.54;36.92;92350.91;5007692;28;20033;-76
2023/04/01 11:34:02;;;;;;;16.00;5.68;;;;;;;14.47;37.74;92374.16;5010155;28;20054;-76
2023/04/01 11:36:41;;;;;;;9.88;2.40;;;;;;;14.91;38.37;92388.22;5007949;28;20053;-76
2023/04/01 11:39:38;;;;;;;5.25;2.22;;;;;;;14.81;37.29;92412.25;5006255;28;20096;-77
2023/04/01 11:42:30;;;;;;;6.55;2.40;;;;;;;14.60;42.23;92434.28;5014404;28;20153;-76
2023/04/01 11:45:15;;;;;;;9.02;2.38;;;;;;;14.13;44.85;92480.44;5009547;28;20036;-76
2023/04/01 11:48:00;;;;;;;9.07;2.08;;;;;;;12.79;50.05;92552.28;5004745;28;20823;-76
2023/04/01 11:50:53;;;;;;;7.03;3.07;;;;;;;11.73;57.87;92554.88;5005088;28;20029;-76
2023/04/01 11:53:21;;;;;;;10.82;2.97;;;;;;;11.26;62.82;92578.91;5008386;28;22576;-76
2023/04/01 11:56:16;;;;;;;8.55;2.85;;;;;;;11.07;64.05;92587.63;5005489;28;20043;-75
2023/04/01 11:58:47;;;;;;;10.98;3.35;;;;;;;10.59;66.09;92594.06;5000228;28;20450;-76
2023/04/01 12:01:19;;;;;;;16.77;3.78;;;;;;;10.58;67.29;92603.13;5009754;28;20037;-76
2023/04/01 12:04:00;;;;;;;9.40;3.42;;;;;;;10.59;68.03;92594.81;5006599;28;20548;-77
2023/04/01 12:06:35;;;;;;;8.00;3.60;;;;;;;10.80;68.65;92573.31;5008492;28;20077;-76
2023/04/01 12:09:20;;;;;;;11.35;4.55;;;;;;;10.91;68.54;92569.00;5006606;28;20567;-77